sensor_id;sensor_type;location;lat;lon;timestamp;temperature;humidity
65836;SHT30;52595;51.608;7.216;2023-03-23T00:01:06;10.52;99.69
65836;SHT30;52595;51.608;7.216;2023-03-23T00:03:32;10.52;99.42
65836;SHT30;52595;51.608;7.216;2023-03-23T00:05:58;10.53;99.42
65836;SHT30;52595;51.608;7.216;2023-03-23T00:08:32;10.59;98.93
65836;SHT30;52595;51.608;7.216;2023-03-23T00:10:58;10.56;99.25
65836;SHT30;52595;51.608;7.216;2023-03-23T00:13:28;10.58;99.48
65836;SHT30;52595;51.608;7.216;2023-03-23T00:15:54;10.62;98.95
65836;SHT30;52595;51.608;7.216;2023-03-23T00:18:22;10.62;99.11
65836;SHT30;52595;51.608;7.216;2023-03-23T00:20:53;10.63;98.94
65836;SHT30;52595;51.608;7.216;2023-03-23T00:23:19;10.59;99.46
65836;SHT30;52595;51.608;7.216;2023-03-23T00:25:47;10.65;98.60
65836;SHT30;52595;51.608;7.216;2023-03-23T00:28:14;10.66;98.55
65836;SHT30;52595;51.608;7.216;2023-03-23T00:30:40;10.65;98.61
65836;SHT30;52595;51.608;7.216;2023-03-23T00:33:08;10.63;98.52
65836;SHT30;52595;51.608;7.216;2023-03-23T00:35:33;10.65;98.28
65836;SHT30;52595;51.608;7.216;2023-03-23T00:38:01;10.65;98.42
65836;SHT30;52595;51.608;7.216;2023-03-23T00:40:27;10.72;98.10
65836;SHT30;52595;51.608;7.216;2023-03-23T00:42:52;10.76;97.65
65836;SHT30;52595;51.608;7.216;2023-03-23T00:45:18;10.77;97.36
65836;SHT30;52595;51.608;7.216;2023-03-23T00:47:43;10.79;97.27
65836;SHT30;52595;51.608;7.216;2023-03-23T00:50:12;10.83;96.89
65836;SHT30;52595;51.608;7.216;2023-03-23T00:52:39;10.80;97.22
65836;SHT30;52595;51.608;7.216;2023-03-23T00:55:06;10.95;96.11
65836;SHT30;52595;51.608;7.216;2023-03-23T00:57:31;11.04;95.05
65836;SHT30;52595;51.608;7.216;2023-03-23T00:59:56;10.99;95.20
65836;SHT30;52595;51.608;7.216;2023-03-23T01:02:22;11.00;94.97
65836;SHT30;52595;51.608;7.216;2023-03-23T01:04:50;11.10;94.56
65836;SHT30;52595;51.608;7.216;2023-03-23T01:07:20;11.34;92.90
65836;SHT30;52595;51.608;7.216;2023-03-23T01:09:46;11.43;92.71
65836;SHT30;52595;51.608;7.216;2023-03-23T01:12:13;11.36;93.11
65836;SHT30;52595;51.608;7.216;2023-03-23T01:14:40;11.36;92.89
65836;SHT30;52595;51.608;7.216;2023-03-23T01:17:05;11.64;91.39
65836;SHT30;52595;51.608;7.216;2023-03-23T01:19:31;11.67;91.40
65836;SHT30;52595;51.608;7.216;2023-03-23T01:21:56;11.73;90.96
65836;SHT30;52595;51.608;7.216;2023-03-23T01:24:22;11.74;90.98
65836;SHT30;52595;51.608;7.216;2023-03-23T01:26:47;11.71;91.20
65836;SHT30;52595;51.608;7.216;2023-03-23T01:29:13;11.85;90.30
65836;SHT30;52595;51.608;7.216;2023-03-23T01:31:39;11.89;90.01
65836;SHT30;52595;51.608;7.216;2023-03-23T01:34:04;11.95;89.88
65836;SHT30;52595;51.608;7.216;2023-03-23T01:36:30;11.94;89.93
65836;SHT30;52595;51.608;7.216;2023-03-23T01:38:58;11.92;90.09
65836;SHT30;52595;51.608;7.216;2023-03-23T01:41:24;11.95;89.79
65836;SHT30;52595;51.608;7.216;2023-03-23T01:46:31;11.89;90.00
65836;SHT30;52595;51.608;7.216;2023-03-23T01:49:01;11.94;89.69
65836;SHT30;52595;51.608;7.216;2023-03-23T01:51:31;11.88;89.92
65836;SHT30;52595;51.608;7.216;2023-03-23T01:53:59;11.88;89.83
65836;SHT30;52595;51.608;7.216;2023-03-23T01:56:29;11.92;89.55
65836;SHT30;52595;51.608;7.216;2023-03-23T01:58:58;11.85;89.80
65836;SHT30;52595;51.608;7.216;2023-03-23T02:01:24;11.79;90.06
65836;SHT30;52595;51.608;7.216;2023-03-23T02:03:52;11.78;89.85
65836;SHT30;52595;51.608;7.216;2023-03-23T02:06:19;11.79;89.98
65836;SHT30;52595;51.608;7.216;2023-03-23T02:08:46;11.77;89.99
65836;SHT30;52595;51.608;7.216;2023-03-23T02:11:15;11.81;89.34
65836;SHT30;52595;51.608;7.216;2023-03-23T02:13:41;11.85;89.11
65836;SHT30;52595;51.608;7.216;2023-03-23T02:21:39;11.98;88.21
65836;SHT30;52595;51.608;7.216;2023-03-23T02:27:05;11.98;88.35
65836;SHT30;52595;51.608;7.216;2023-03-23T02:35:34;12.04;88.16
65836;SHT30;52595;51.608;7.216;2023-03-23T02:38:08;12.05;88.16
65836;SHT30;52595;51.608;7.216;2023-03-23T02:40:43;11.98;88.62
65836;SHT30;52595;51.608;7.216;2023-03-23T02:43:14;11.99;88.78
65836;SHT30;52595;51.608;7.216;2023-03-23T02:45:41;11.99;88.82
65836;SHT30;52595;51.608;7.216;2023-03-23T02:48:08;11.95;89.30
65836;SHT30;52595;51.608;7.216;2023-03-23T02:50:36;11.98;89.28
65836;SHT30;52595;51.608;7.216;2023-03-23T02:53:07;11.94;89.62
65836;SHT30;52595;51.608;7.216;2023-03-23T02:55:34;11.87;89.99
65836;SHT30;52595;51.608;7.216;2023-03-23T02:58:05;11.81;90.17
65836;SHT30;52595;51.608;7.216;2023-03-23T03:00:31;11.82;90.21
65836;SHT30;52595;51.608;7.216;2023-03-23T03:02:57;11.78;90.41
65836;SHT30;52595;51.608;7.216;2023-03-23T03:05:43;11.71;90.75
65836;SHT30;52595;51.608;7.216;2023-03-23T03:08:22;11.73;90.69
65836;SHT30;52595;51.608;7.216;2023-03-23T03:11:06;11.73;90.71
65836;SHT30;52595;51.608;7.216;2023-03-23T03:14:09;11.82;90.15
65836;SHT30;52595;51.608;7.216;2023-03-23T03:16:38;11.73;90.54
65836;SHT30;52595;51.608;7.216;2023-03-23T03:21:45;11.70;90.85
65836;SHT30;52595;51.608;7.216;2023-03-23T03:24:15;11.68;90.84
65836;SHT30;52595;51.608;7.216;2023-03-23T03:26:44;11.65;91.07
65836;SHT30;52595;51.608;7.216;2023-03-23T03:29:19;11.58;91.48
65836;SHT30;52595;51.608;7.216;2023-03-23T03:31:47;11.63;91.13
65836;SHT30;52595;51.608;7.216;2023-03-23T03:34:14;11.63;91.13
65836;SHT30;52595;51.608;7.216;2023-03-23T03:36:44;11.70;90.65
65836;SHT30;52595;51.608;7.216;2023-03-23T03:39:11;11.65;90.82
65836;SHT30;52595;51.608;7.216;2023-03-23T03:41:38;11.63;90.85
65836;SHT30;52595;51.608;7.216;2023-03-23T03:44:05;11.68;90.41
65836;SHT30;52595;51.608;7.216;2023-03-23T03:46:32;11.73;90.07
65836;SHT30;52595;51.608;7.216;2023-03-23T03:48:58;11.77;89.91
65836;SHT30;52595;51.608;7.216;2023-03-23T03:51:25;11.75;89.94
65836;SHT30;52595;51.608;7.216;2023-03-23T03:53:51;11.78;89.52
65836;SHT30;52595;51.608;7.216;2023-03-23T03:56:16;11.79;89.22
65836;SHT30;52595;51.608;7.216;2023-03-23T03:58:42;11.81;89.07
65836;SHT30;52595;51.608;7.216;2023-03-23T04:01:08;11.81;89.17
65836;SHT30;52595;51.608;7.216;2023-03-23T04:03:38;11.81;89.00
65836;SHT30;52595;51.608;7.216;2023-03-23T04:06:04;11.82;88.93
65836;SHT30;52595;51.608;7.216;2023-03-23T04:08:29;11.87;88.60
65836;SHT30;52595;51.608;7.216;2023-03-23T04:10:55;11.84;88.63
65836;SHT30;52595;51.608;7.216;2023-03-23T04:13:22;11.91;88.19
65836;SHT30;52595;51.608;7.216;2023-03-23T04:15:47;11.99;88.05
65836;SHT30;52595;51.608;7.216;2023-03-23T04:18:14;12.09;87.60
65836;SHT30;52595;51.608;7.216;2023-03-23T04:20:45;12.08;87.67
65836;SHT30;52595;51.608;7.216;2023-03-23T04:23:13;12.09;87.77
65836;SHT30;52595;51.608;7.216;2023-03-23T04:25:38;12.17;86.90
65836;SHT30;52595;51.608;7.216;2023-03-23T04:28:06;12.12;87.41
65836;SHT30;52595;51.608;7.216;2023-03-23T04:30:32;12.17;87.18
65836;SHT30;52595;51.608;7.216;2023-03-23T04:32:57;12.19;87.12
65836;SHT30;52595;51.608;7.216;2023-03-23T04:35:25;12.22;86.83
65836;SHT30;52595;51.608;7.216;2023-03-23T04:37:51;12.26;86.50
65836;SHT30;52595;51.608;7.216;2023-03-23T04:40:18;12.25;86.65
65836;SHT30;52595;51.608;7.216;2023-03-23T04:42:44;12.29;86.47
65836;SHT30;52595;51.608;7.216;2023-03-23T04:45:17;12.22;86.70
65836;SHT30;52595;51.608;7.216;2023-03-23T04:47:50;12.24;86.78
65836;SHT30;52595;51.608;7.216;2023-03-23T04:50:23;12.35;85.92
65836;SHT30;52595;51.608;7.216;2023-03-23T04:52:49;12.39;85.98
65836;SHT30;52595;51.608;7.216;2023-03-23T04:55:17;12.30;86.32
65836;SHT30;52595;51.608;7.216;2023-03-23T04:57:42;12.32;86.13
65836;SHT30;52595;51.608;7.216;2023-03-23T05:00:10;12.36;85.73
65836;SHT30;52595;51.608;7.216;2023-03-23T05:02:40;12.28;86.38
65836;SHT30;52595;51.608;7.216;2023-03-23T05:05:10;12.26;86.32
65836;SHT30;52595;51.608;7.216;2023-03-23T05:07:39;12.32;85.98
65836;SHT30;52595;51.608;7.216;2023-03-23T05:10:06;12.33;85.96
65836;SHT30;52595;51.608;7.216;2023-03-23T05:12:33;12.32;86.04
65836;SHT30;52595;51.608;7.216;2023-03-23T05:14:58;12.32;86.19
65836;SHT30;52595;51.608;7.216;2023-03-23T05:17:23;12.32;85.66
65836;SHT30;52595;51.608;7.216;2023-03-23T05:19:52;12.38;85.53
65836;SHT30;52595;51.608;7.216;2023-03-23T05:22:19;12.40;85.32
65836;SHT30;52595;51.608;7.216;2023-03-23T05:24:46;12.45;85.00
65836;SHT30;52595;51.608;7.216;2023-03-23T05:27:12;12.38;85.60
65836;SHT30;52595;51.608;7.216;2023-03-23T05:29:38;12.42;85.10
65836;SHT30;52595;51.608;7.216;2023-03-23T05:32:06;12.43;85.17
65836;SHT30;52595;51.608;7.216;2023-03-23T05:34:33;12.39;85.18
65836;SHT30;52595;51.608;7.216;2023-03-23T05:37:00;12.39;85.49
65836;SHT30;52595;51.608;7.216;2023-03-23T05:39:26;12.46;84.56
65836;SHT30;52595;51.608;7.216;2023-03-23T05:41:52;12.42;85.10
65836;SHT30;52595;51.608;7.216;2023-03-23T05:44:18;12.39;85.29
65836;SHT30;52595;51.608;7.216;2023-03-23T05:46:44;12.40;85.22
65836;SHT30;52595;51.608;7.216;2023-03-23T05:49:10;12.48;84.52
65836;SHT30;52595;51.608;7.216;2023-03-23T05:51:35;12.46;84.76
65836;SHT30;52595;51.608;7.216;2023-03-23T05:54:01;12.42;84.91
65836;SHT30;52595;51.608;7.216;2023-03-23T05:56:27;12.49;84.63
65836;SHT30;52595;51.608;7.216;2023-03-23T05:58:57;12.43;85.04
65836;SHT30;52595;51.608;7.216;2023-03-23T06:01:23;12.43;85.14
65836;SHT30;52595;51.608;7.216;2023-03-23T06:03:49;12.42;84.90
65836;SHT30;52595;51.608;7.216;2023-03-23T06:06:16;12.45;84.88
65836;SHT30;52595;51.608;7.216;2023-03-23T06:08:41;12.42;84.90
65836;SHT30;52595;51.608;7.216;2023-03-23T06:11:07;12.40;85.14
65836;SHT30;52595;51.608;7.216;2023-03-23T06:13:33;12.36;85.64
65836;SHT30;52595;51.608;7.216;2023-03-23T06:15:59;12.35;85.53
65836;SHT30;52595;51.608;7.216;2023-03-23T06:18:24;12.29;86.15
65836;SHT30;52595;51.608;7.216;2023-03-23T06:20:51;12.29;85.87
65836;SHT30;52595;51.608;7.216;2023-03-23T06:23:18;12.29;85.93
65836;SHT30;52595;51.608;7.216;2023-03-23T06:25:43;12.30;85.90
65836;SHT30;52595;51.608;7.216;2023-03-23T06:28:09;12.11;87.30
65836;SHT30;52595;51.608;7.216;2023-03-23T06:30:36;12.06;87.40
65836;SHT30;52595;51.608;7.216;2023-03-23T06:33:02;12.11;87.15
65836;SHT30;52595;51.608;7.216;2023-03-23T06:35:31;12.15;86.91
65836;SHT30;52595;51.608;7.216;2023-03-23T06:37:57;12.24;86.46
65836;SHT30;52595;51.608;7.216;2023-03-23T06:40:27;12.32;85.94
65836;SHT30;52595;51.608;7.216;2023-03-23T06:42:53;12.38;85.96
65836;SHT30;52595;51.608;7.216;2023-03-23T06:45:18;12.43;85.26
65836;SHT30;52595;51.608;7.216;2023-03-23T06:47:45;12.48;85.37
65836;SHT30;52595;51.608;7.216;2023-03-23T06:50:14;12.63;84.67
65836;SHT30;52595;51.608;7.216;2023-03-23T06:52:40;12.60;85.12
65836;SHT30;52595;51.608;7.216;2023-03-23T06:55:05;12.67;84.59
65836;SHT30;52595;51.608;7.216;2023-03-23T06:57:32;12.77;84.18
65836;SHT30;52595;51.608;7.216;2023-03-23T06:59:57;12.83;84.03
65836;SHT30;52595;51.608;7.216;2023-03-23T07:02:22;12.82;83.82
65836;SHT30;52595;51.608;7.216;2023-03-23T07:04:48;12.79;83.18
65836;SHT30;52595;51.608;7.216;2023-03-23T07:07:14;12.80;83.21
65836;SHT30;52595;51.608;7.216;2023-03-23T07:09:43;12.89;83.17
65836;SHT30;52595;51.608;7.216;2023-03-23T07:12:09;12.87;82.40
65836;SHT30;52595;51.608;7.216;2023-03-23T07:14:35;12.90;82.64
65836;SHT30;52595;51.608;7.216;2023-03-23T07:17:02;12.94;82.65
65836;SHT30;52595;51.608;7.216;2023-03-23T07:19:28;12.87;82.45
65836;SHT30;52595;51.608;7.216;2023-03-23T07:21:53;12.89;82.42
65836;SHT30;52595;51.608;7.216;2023-03-23T07:24:19;12.90;82.11
65836;SHT30;52595;51.608;7.216;2023-03-23T07:26:44;12.90;81.66
65836;SHT30;52595;51.608;7.216;2023-03-23T07:29:10;12.97;81.80
65836;SHT30;52595;51.608;7.216;2023-03-23T07:31:35;13.00;81.68
65836;SHT30;52595;51.608;7.216;2023-03-23T07:34:01;12.97;81.21
65836;SHT30;52595;51.608;7.216;2023-03-23T07:36:28;12.97;81.34
65836;SHT30;52595;51.608;7.216;2023-03-23T07:38:53;12.97;81.20
65836;SHT30;52595;51.608;7.216;2023-03-23T07:41:20;12.96;80.98
65836;SHT30;52595;51.608;7.216;2023-03-23T07:43:45;13.04;81.03
65836;SHT30;52595;51.608;7.216;2023-03-23T07:46:11;13.02;80.63
65836;SHT30;52595;51.608;7.216;2023-03-23T07:48:38;13.03;80.65
65836;SHT30;52595;51.608;7.216;2023-03-23T07:51:04;13.10;80.49
65836;SHT30;52595;51.608;7.216;2023-03-23T07:53:30;13.06;80.36
65836;SHT30;52595;51.608;7.216;2023-03-23T07:55:55;13.10;80.42
65836;SHT30;52595;51.608;7.216;2023-03-23T07:58:21;13.10;80.46
65836;SHT30;52595;51.608;7.216;2023-03-23T08:00:46;13.14;80.31
65836;SHT30;52595;51.608;7.216;2023-03-23T08:03:14;13.08;79.79
65836;SHT30;52595;51.608;7.216;2023-03-23T08:05:41;13.08;79.81
65836;SHT30;52595;51.608;7.216;2023-03-23T08:08:08;13.11;79.83
65836;SHT30;52595;51.608;7.216;2023-03-23T08:10:33;13.07;79.87
65836;SHT30;52595;51.608;7.216;2023-03-23T08:12:58;13.11;79.79
65836;SHT30;52595;51.608;7.216;2023-03-23T08:15:25;13.24;79.60
65836;SHT30;52595;51.608;7.216;2023-03-23T08:17:51;13.24;79.22
65836;SHT30;52595;51.608;7.216;2023-03-23T08:20:17;13.27;79.19
65836;SHT30;52595;51.608;7.216;2023-03-23T08:22:48;13.34;78.78
65836;SHT30;52595;51.608;7.216;2023-03-23T08:25:14;13.34;78.76
65836;SHT30;52595;51.608;7.216;2023-03-23T08:27:39;13.41;78.32
65836;SHT30;52595;51.608;7.216;2023-03-23T08:30:16;13.47;78.27
65836;SHT30;52595;51.608;7.216;2023-03-23T08:32:43;13.47;78.30
65836;SHT30;52595;51.608;7.216;2023-03-23T08:35:10;13.51;77.79
65836;SHT30;52595;51.608;7.216;2023-03-23T08:37:36;13.67;77.40
65836;SHT30;52595;51.608;7.216;2023-03-23T08:40:03;13.64;77.30
65836;SHT30;52595;51.608;7.216;2023-03-23T08:42:34;13.53;77.33
65836;SHT30;52595;51.608;7.216;2023-03-23T08:45:00;13.62;77.48
65836;SHT30;52595;51.608;7.216;2023-03-23T08:47:26;13.64;77.18
65836;SHT30;52595;51.608;7.216;2023-03-23T08:49:51;13.71;76.94
65836;SHT30;52595;51.608;7.216;2023-03-23T08:52:19;13.69;76.80
65836;SHT30;52595;51.608;7.216;2023-03-23T08:54:45;13.72;77.08
65836;SHT30;52595;51.608;7.216;2023-03-23T08:57:13;13.69;76.79
65836;SHT30;52595;51.608;7.216;2023-03-23T08:59:40;13.54;77.05
65836;SHT30;52595;51.608;7.216;2023-03-23T09:02:09;13.48;77.36
65836;SHT30;52595;51.608;7.216;2023-03-23T09:04:36;13.59;77.44
65836;SHT30;52595;51.608;7.216;2023-03-23T09:07:05;13.50;77.47
65836;SHT30;52595;51.608;7.216;2023-03-23T09:09:31;13.50;77.41
65836;SHT30;52595;51.608;7.216;2023-03-23T09:11:57;13.43;77.42
65836;SHT30;52595;51.608;7.216;2023-03-23T09:14:23;13.40;77.53
65836;SHT30;52595;51.608;7.216;2023-03-23T09:16:48;13.37;77.74
65836;SHT30;52595;51.608;7.216;2023-03-23T09:19:14;13.33;77.45
65836;SHT30;52595;51.608;7.216;2023-03-23T09:21:40;13.34;77.38
65836;SHT30;52595;51.608;7.216;2023-03-23T09:24:06;13.34;77.43
65836;SHT30;52595;51.608;7.216;2023-03-23T09:26:32;13.35;77.78
65836;SHT30;52595;51.608;7.216;2023-03-23T09:28:57;13.43;77.54
65836;SHT30;52595;51.608;7.216;2023-03-23T09:31:24;13.54;77.34
65836;SHT30;52595;51.608;7.216;2023-03-23T09:33:52;13.53;77.18
65836;SHT30;52595;51.608;7.216;2023-03-23T09:36:19;13.62;76.91
65836;SHT30;52595;51.608;7.216;2023-03-23T09:38:47;13.62;76.60
65836;SHT30;52595;51.608;7.216;2023-03-23T09:52:01;12.59;84.17
65836;SHT30;52595;51.608;7.216;2023-03-23T09:54:47;12.28;86.58
65836;SHT30;52595;51.608;7.216;2023-03-23T09:57:22;11.10;90.57
65836;SHT30;52595;51.608;7.216;2023-03-23T10:02:28;10.34;91.54
65836;SHT30;52595;51.608;7.216;2023-03-23T10:05:12;10.01;92.30
65836;SHT30;52595;51.608;7.216;2023-03-23T10:07:40;9.83;93.94
65836;SHT30;52595;51.608;7.216;2023-03-23T10:10:12;9.80;94.79
65836;SHT30;52595;51.608;7.216;2023-03-23T10:12:42;9.80;94.98
65836;SHT30;52595;51.608;7.216;2023-03-23T10:15:21;9.78;94.83
65836;SHT30;52595;51.608;7.216;2023-03-23T10:18:03;9.84;95.59
65836;SHT30;52595;51.608;7.216;2023-03-23T10:21:02;9.71;94.61
65836;SHT30;52595;51.608;7.216;2023-03-23T10:23:51;9.61;95.14
65836;SHT30;52595;51.608;7.216;2023-03-23T10:26:21;9.67;95.32
65836;SHT30;52595;51.608;7.216;2023-03-23T10:28:54;9.69;95.64
65836;SHT30;52595;51.608;7.216;2023-03-23T10:31:28;9.71;95.01
65836;SHT30;52595;51.608;7.216;2023-03-23T10:33:58;9.63;94.89
65836;SHT30;52595;51.608;7.216;2023-03-23T10:36:48;9.61;94.87
65836;SHT30;52595;51.608;7.216;2023-03-23T10:39:19;9.74;95.61
65836;SHT30;52595;51.608;7.216;2023-03-23T10:41:46;9.97;95.54
65836;SHT30;52595;51.608;7.216;2023-03-23T10:44:16;10.07;95.84
65836;SHT30;52595;51.608;7.216;2023-03-23T10:46:51;10.02;96.73
65836;SHT30;52595;51.608;7.216;2023-03-23T10:49:46;9.99;96.87
65836;SHT30;52595;51.608;7.216;2023-03-23T10:52:39;10.12;96.09
65836;SHT30;52595;51.608;7.216;2023-03-23T10:55:09;10.24;96.12
65836;SHT30;52595;51.608;7.216;2023-03-23T10:57:37;10.12;95.13
65836;SHT30;52595;51.608;7.216;2023-03-23T11:02:37;10.14;96.13
65836;SHT30;52595;51.608;7.216;2023-03-23T11:05:15;10.02;95.10
65836;SHT30;52595;51.608;7.216;2023-03-23T11:07:56;10.18;95.24
65836;SHT30;52595;51.608;7.216;2023-03-23T11:10:24;10.18;95.18
65836;SHT30;52595;51.608;7.216;2023-03-23T11:12:50;9.91;93.80
65836;SHT30;52595;51.608;7.216;2023-03-23T11:15:37;9.76;93.73
65836;SHT30;52595;51.608;7.216;2023-03-23T11:18:10;9.71;94.93
65836;SHT30;52595;51.608;7.216;2023-03-23T11:20:38;9.71;94.63
65836;SHT30;52595;51.608;7.216;2023-03-23T11:23:21;9.71;96.00
65836;SHT30;52595;51.608;7.216;2023-03-23T11:26:11;9.69;96.69
65836;SHT30;52595;51.608;7.216;2023-03-23T11:28:58;9.60;96.88
65836;SHT30;52595;51.608;7.216;2023-03-23T11:31:32;9.64;98.06
65836;SHT30;52595;51.608;7.216;2023-03-23T11:36:37;9.66;98.23
65836;SHT30;52595;51.608;7.216;2023-03-23T11:39:32;9.53;97.80
65836;SHT30;52595;51.608;7.216;2023-03-23T11:42:12;9.56;98.66
65836;SHT30;52595;51.608;7.216;2023-03-23T11:44:42;9.73;98.58
65836;SHT30;52595;51.608;7.216;2023-03-23T11:47:32;9.74;98.40
65836;SHT30;52595;51.608;7.216;2023-03-23T11:50:08;9.93;98.12
65836;SHT30;52595;51.608;7.216;2023-03-23T11:55:14;10.09;97.56
65836;SHT30;52595;51.608;7.216;2023-03-23T11:57:41;10.14;97.87
65836;SHT30;52595;51.608;7.216;2023-03-23T12:00:15;10.14;97.80
65836;SHT30;52595;51.608;7.216;2023-03-23T12:03:05;10.08;98.32
65836;SHT30;52595;51.608;7.216;2023-03-23T12:08:30;10.18;99.05
65836;SHT30;52595;51.608;7.216;2023-03-23T12:16:44;10.27;98.52
65836;SHT30;52595;51.608;7.216;2023-03-23T12:22:32;10.07;98.78
65836;SHT30;52595;51.608;7.216;2023-03-23T12:25:31;10.08;98.88
65836;SHT30;52595;51.608;7.216;2023-03-23T12:30:49;10.01;99.19
65836;SHT30;52595;51.608;7.216;2023-03-23T12:33:18;10.01;99.20
65836;SHT30;52595;51.608;7.216;2023-03-23T12:43:58;10.52;99.46
65836;SHT30;52595;51.608;7.216;2023-03-23T12:49:59;10.75;98.46
65836;SHT30;52595;51.608;7.216;2023-03-23T12:55:05;10.77;97.22
65836;SHT30;52595;51.608;7.216;2023-03-23T13:07:54;11.91;96.14
65836;SHT30;52595;51.608;7.216;2023-03-23T13:10:24;11.77;95.37
65836;SHT30;52595;51.608;7.216;2023-03-23T13:12:52;11.91;95.86
65836;SHT30;52595;51.608;7.216;2023-03-23T13:23:39;11.70;96.27
65836;SHT30;52595;51.608;7.216;2023-03-23T13:26:18;11.74;95.32
65836;SHT30;52595;51.608;7.216;2023-03-23T13:28:59;11.68;95.40
65836;SHT30;52595;51.608;7.216;2023-03-23T13:31:32;11.91;95.56
65836;SHT30;52595;51.608;7.216;2023-03-23T13:34:04;11.70;95.10
65836;SHT30;52595;51.608;7.216;2023-03-23T13:36:39;11.87;94.61
65836;SHT30;52595;51.608;7.216;2023-03-23T13:39:19;13.17;92.89
65836;SHT30;52595;51.608;7.216;2023-03-23T13:42:02;13.08;90.47
65836;SHT30;52595;51.608;7.216;2023-03-23T13:52:53;14.10;86.17
65836;SHT30;52595;51.608;7.216;2023-03-23T14:00:44;13.38;88.65
65836;SHT30;52595;51.608;7.216;2023-03-23T14:05:49;13.00;89.08
65836;SHT30;52595;51.608;7.216;2023-03-23T14:10:55;12.89;89.11
65836;SHT30;52595;51.608;7.216;2023-03-23T14:16:31;13.03;88.99
65836;SHT30;52595;51.608;7.216;2023-03-23T14:19:02;13.25;88.07
65836;SHT30;52595;51.608;7.216;2023-03-23T14:21:37;13.59;87.61
65836;SHT30;52595;51.608;7.216;2023-03-23T14:24:10;14.29;85.89
65836;SHT30;52595;51.608;7.216;2023-03-23T14:26:36;14.66;84.54
65836;SHT30;52595;51.608;7.216;2023-03-23T14:29:03;15.32;82.88
65836;SHT30;52595;51.608;7.216;2023-03-23T14:31:29;15.79;80.29
65836;SHT30;52595;51.608;7.216;2023-03-23T14:33:56;14.97;82.25
65836;SHT30;52595;51.608;7.216;2023-03-23T14:36:28;14.36;84.81
65836;SHT30;52595;51.608;7.216;2023-03-23T14:41:41;14.93;83.11
65836;SHT30;52595;51.608;7.216;2023-03-23T14:44:17;16.17;78.72
65836;SHT30;52595;51.608;7.216;2023-03-23T14:46:46;15.44;80.36
65836;SHT30;52595;51.608;7.216;2023-03-23T14:49:17;15.05;82.57
65836;SHT30;52595;51.608;7.216;2023-03-23T14:51:49;14.34;83.70
65836;SHT30;52595;51.608;7.216;2023-03-23T14:54:15;14.34;84.89
65836;SHT30;52595;51.608;7.216;2023-03-23T14:56:41;14.37;85.35
65836;SHT30;52595;51.608;7.216;2023-03-23T14:59:10;14.33;85.04
65836;SHT30;52595;51.608;7.216;2023-03-23T15:01:37;14.20;85.82
65836;SHT30;52595;51.608;7.216;2023-03-23T15:04:19;14.10;86.05
65836;SHT30;52595;51.608;7.216;2023-03-23T15:07:00;14.09;85.94
65836;SHT30;52595;51.608;7.216;2023-03-23T15:09:26;13.75;86.65
65836;SHT30;52595;51.608;7.216;2023-03-23T15:12:00;13.58;86.99
65836;SHT30;52595;51.608;7.216;2023-03-23T15:14:45;13.53;86.94
65836;SHT30;52595;51.608;7.216;2023-03-23T15:17:20;13.55;86.60
65836;SHT30;52595;51.608;7.216;2023-03-23T15:19:45;13.50;86.48
65836;SHT30;52595;51.608;7.216;2023-03-23T15:22:27;13.95;85.33
65836;SHT30;52595;51.608;7.216;2023-03-23T15:25:11;14.62;83.22
65836;SHT30;52595;51.608;7.216;2023-03-23T15:27:43;14.91;81.13
65836;SHT30;52595;51.608;7.216;2023-03-23T15:30:33;15.62;78.84
65836;SHT30;52595;51.608;7.216;2023-03-23T15:33:08;14.84;80.81
65836;SHT30;52595;51.608;7.216;2023-03-23T15:35:37;15.62;78.74
65836;SHT30;52595;51.608;7.216;2023-03-23T15:38:14;16.87;75.10
65836;SHT30;52595;51.608;7.216;2023-03-23T15:40:43;16.13;75.43
65836;SHT30;52595;51.608;7.216;2023-03-23T15:43:20;16.16;77.09
65836;SHT30;52595;51.608;7.216;2023-03-23T15:46:16;16.57;74.89
65836;SHT30;52595;51.608;7.216;2023-03-23T15:51:19;16.52;74.21
65836;SHT30;52595;51.608;7.216;2023-03-23T15:53:45;15.66;76.59
65836;SHT30;52595;51.608;7.216;2023-03-23T15:56:13;15.03;78.44
65836;SHT30;52595;51.608;7.216;2023-03-23T15:58:38;15.15;77.87
65836;SHT30;52595;51.608;7.216;2023-03-23T16:01:09;15.45;78.27
65836;SHT30;52595;51.608;7.216;2023-03-23T16:06:29;16.87;72.06
65836;SHT30;52595;51.608;7.216;2023-03-23T16:08:55;17.90;69.94
65836;SHT30;52595;51.608;7.216;2023-03-23T16:11:21;17.36;70.99
65836;SHT30;52595;51.608;7.216;2023-03-23T16:13:47;16.88;70.57
65836;SHT30;52595;51.608;7.216;2023-03-23T16:16:15;16.16;72.63
65836;SHT30;52595;51.608;7.216;2023-03-23T16:18:42;16.08;72.89
65836;SHT30;52595;51.608;7.216;2023-03-23T16:21:07;16.02;73.56
65836;SHT30;52595;51.608;7.216;2023-03-23T16:23:33;15.88;74.25
65836;SHT30;52595;51.608;7.216;2023-03-23T16:25:58;15.31;74.72
65836;SHT30;52595;51.608;7.216;2023-03-23T16:28:24;14.88;75.50
65836;SHT30;52595;51.608;7.216;2023-03-23T16:30:49;14.84;75.89
65836;SHT30;52595;51.608;7.216;2023-03-23T16:33:14;14.70;76.57
65836;SHT30;52595;51.608;7.216;2023-03-23T16:35:40;14.73;77.18
65836;SHT30;52595;51.608;7.216;2023-03-23T16:38:06;14.69;77.72
65836;SHT30;52595;51.608;7.216;2023-03-23T16:40:31;14.59;77.84
65836;SHT30;52595;51.608;7.216;2023-03-23T16:42:57;14.46;78.26
65836;SHT30;52595;51.608;7.216;2023-03-23T16:45:23;14.37;78.42
65836;SHT30;52595;51.608;7.216;2023-03-23T16:47:50;14.49;78.22
65836;SHT30;52595;51.608;7.216;2023-03-23T16:50:17;14.42;78.46
65836;SHT30;52595;51.608;7.216;2023-03-23T16:52:44;14.34;78.79
65836;SHT30;52595;51.608;7.216;2023-03-23T16:55:12;14.34;78.72
65836;SHT30;52595;51.608;7.216;2023-03-23T16:57:38;14.20;78.91
65836;SHT30;52595;51.608;7.216;2023-03-23T17:00:09;14.16;79.10
65836;SHT30;52595;51.608;7.216;2023-03-23T17:02:37;14.12;79.32
65836;SHT30;52595;51.608;7.216;2023-03-23T17:05:04;14.09;79.68
65836;SHT30;52595;51.608;7.216;2023-03-23T17:07:30;14.10;79.65
65836;SHT30;52595;51.608;7.216;2023-03-23T17:09:55;14.04;79.51
65836;SHT30;52595;51.608;7.216;2023-03-23T17:12:21;13.99;79.78
65836;SHT30;52595;51.608;7.216;2023-03-23T17:14:46;14.01;79.85
65836;SHT30;52595;51.608;7.216;2023-03-23T17:17:11;13.98;79.87
65836;SHT30;52595;51.608;7.216;2023-03-23T17:19:37;13.98;80.29
65836;SHT30;52595;51.608;7.216;2023-03-23T17:22:03;13.89;80.43
65836;SHT30;52595;51.608;7.216;2023-03-23T17:24:28;13.89;81.12
65836;SHT30;52595;51.608;7.216;2023-03-23T17:26:54;13.90;80.94
65836;SHT30;52595;51.608;7.216;2023-03-23T17:29:20;13.83;81.10
65836;SHT30;52595;51.608;7.216;2023-03-23T17:31:47;13.67;82.09
65836;SHT30;52595;51.608;7.216;2023-03-23T17:34:13;13.58;82.37
65836;SHT30;52595;51.608;7.216;2023-03-23T17:36:38;13.44;82.91
65836;SHT30;52595;51.608;7.216;2023-03-23T17:39:04;13.43;83.06
65836;SHT30;52595;51.608;7.216;2023-03-23T17:41:30;13.38;83.29
65836;SHT30;52595;51.608;7.216;2023-03-23T17:43:55;13.38;83.57